KBED

Laurence G Hanscom Field Airport

Bedford, Massachusetts, USA
METAR KBED 101456Z 36008KT 10SM FEW250 01/M08 A3011 RMK AO2 SLP212 T00111078 53011
Observed Flight Rules
Dec-10 @ 14:56 UTC (36 minutes ago) Visual Flight Rules
Wind Visibility Clouds
360° at 8 knots 10 miles
  • Few at 25,000' AGL
Temperatures Readings
Current 1°C / 34°F
Dewpoint -8°C / 18°F
Humidity 51%
Altimeter 30.11" Hg
Pressure 1021.2 hPa
Elevation 50
METAR KBED 101456Z 36008KT 10SM FEW250 01/M08 A3011 RMK AO2 SLP212 T00111078 53011
Observed Flight Rules
Dec-10 @ 14:56 UTC
(36 minutes ago)
VFR
Wind Visibility
360° at 8 knots 10 miles
Clouds
  • Few at 25,000' AGL
Temperature Dewpoint
1°C / 34°F -8°C / 18°F
Humidity Altimeter Pressure
51% 30.11" Hg 1021.2 hPa